sensor_id;sensor_type;location;lat;lon;timestamp;P1;durP1;ratioP1;P2;durP2;ratioP2
18796;SDS011;9526;52.612;13.300;2023-05-10T00:02:00;10.02;;;6.72;;
18796;SDS011;9526;52.612;13.300;2023-05-10T00:04:24;10.50;;;7.15;;
18796;SDS011;9526;52.612;13.300;2023-05-10T00:06:48;12.57;;;7.07;;
18796;SDS011;9526;52.612;13.300;2023-05-10T00:09:12;12.90;;;6.93;;
18796;SDS011;9526;52.612;13.300;2023-05-10T00:11:36;13.30;;;7.18;;
18796;SDS011;9526;52.612;13.300;2023-05-10T00:13:59;11.73;;;6.93;;
18796;SDS011;9526;52.612;13.300;2023-05-10T00:16:24;10.00;;;6.90;;
18796;SDS011;9526;52.612;13.300;2023-05-10T00:18:48;10.52;;;7.22;;
18796;SDS011;9526;52.612;13.300;2023-05-10T00:21:12;10.45;;;7.10;;
18796;SDS011;9526;52.612;13.300;2023-05-10T00:23:35;10.65;;;7.00;;
18796;SDS011;9526;52.612;13.300;2023-05-10T00:25:59;10.18;;;6.97;;
18796;SDS011;9526;52.612;13.300;2023-05-10T00:28:23;15.35;;;7.22;;
18796;SDS011;9526;52.612;13.300;2023-05-10T00:30:47;15.68;;;7.55;;
18796;SDS011;9526;52.612;13.300;2023-05-10T00:33:12;10.48;;;7.50;;
18796;SDS011;9526;52.612;13.300;2023-05-10T00:35:36;13.23;;;7.78;;
18796;SDS011;9526;52.612;13.300;2023-05-10T00:37:59;9.25;;;7.15;;
18796;SDS011;9526;52.612;13.300;2023-05-10T00:40:23;16.40;;;7.75;;
18796;SDS011;9526;52.612;13.300;2023-05-10T00:42:51;13.52;;;7.38;;
18796;SDS011;9526;52.612;13.300;2023-05-10T00:45:15;10.05;;;7.00;;
18796;SDS011;9526;52.612;13.300;2023-05-10T00:47:39;10.35;;;7.07;;
18796;SDS011;9526;52.612;13.300;2023-05-10T00:50:04;11.65;;;7.40;;
18796;SDS011;9526;52.612;13.300;2023-05-10T00:52:30;10.57;;;7.25;;
18796;SDS011;9526;52.612;13.300;2023-05-10T00:54:54;11.93;;;7.03;;
18796;SDS011;9526;52.612;13.300;2023-05-10T00:57:19;11.57;;;7.30;;
18796;SDS011;9526;52.612;13.300;2023-05-10T00:59:44;10.15;;;7.53;;
18796;SDS011;9526;52.612;13.300;2023-05-10T01:02:07;11.13;;;7.47;;
18796;SDS011;9526;52.612;13.300;2023-05-10T01:04:31;9.82;;;7.53;;
18796;SDS011;9526;52.612;13.300;2023-05-10T01:06:58;8.73;;;6.93;;
18796;SDS011;9526;52.612;13.300;2023-05-10T01:09:21;12.32;;;7.88;;
18796;SDS011;9526;52.612;13.300;2023-05-10T01:11:47;11.77;;;7.22;;
18796;SDS011;9526;52.612;13.300;2023-05-10T01:14:12;14.57;;;7.85;;
18796;SDS011;9526;52.612;13.300;2023-05-10T01:16:38;10.57;;;7.82;;
18796;SDS011;9526;52.612;13.300;2023-05-10T01:19:03;10.23;;;7.70;;
18796;SDS011;9526;52.612;13.300;2023-05-10T01:21:31;9.18;;;6.88;;
18796;SDS011;9526;52.612;13.300;2023-05-10T01:27:18;15.95;;;7.55;;
18796;SDS011;9526;52.612;13.300;2023-05-10T01:30:32;11.70;;;7.70;;
18796;SDS011;9526;52.612;13.300;2023-05-10T01:33:29;16.13;;;8.25;;
18796;SDS011;9526;52.612;13.300;2023-05-10T01:35:59;13.02;;;7.65;;
18796;SDS011;9526;52.612;13.300;2023-05-10T01:38:32;12.32;;;8.48;;
18796;SDS011;9526;52.612;13.300;2023-05-10T01:41:07;12.82;;;8.20;;
18796;SDS011;9526;52.612;13.300;2023-05-10T01:43:40;11.38;;;8.20;;
18796;SDS011;9526;52.612;13.300;2023-05-10T01:46:14;10.98;;;7.78;;
18796;SDS011;9526;52.612;13.300;2023-05-10T01:48:47;10.93;;;7.80;;
18796;SDS011;9526;52.612;13.300;2023-05-10T01:51:15;14.38;;;9.10;;
18796;SDS011;9526;52.612;13.300;2023-05-10T01:53:47;11.40;;;8.52;;
18796;SDS011;9526;52.612;13.300;2023-05-10T01:56:12;13.95;;;8.07;;
18796;SDS011;9526;52.612;13.300;2023-05-10T01:58:37;13.43;;;8.35;;
18796;SDS011;9526;52.612;13.300;2023-05-10T02:01:07;13.05;;;8.82;;
18796;SDS011;9526;52.612;13.300;2023-05-10T02:03:32;14.20;;;8.32;;
18796;SDS011;9526;52.612;13.300;2023-05-10T02:05:59;10.60;;;7.90;;
18796;SDS011;9526;52.612;13.300;2023-05-10T02:08:24;18.63;;;8.18;;
18796;SDS011;9526;52.612;13.300;2023-05-10T02:10:49;12.55;;;8.43;;
18796;SDS011;9526;52.612;13.300;2023-05-10T02:13:17;13.68;;;8.30;;
18796;SDS011;9526;52.612;13.300;2023-05-10T02:15:41;11.68;;;8.23;;
18796;SDS011;9526;52.612;13.300;2023-05-10T02:18:06;12.70;;;7.68;;
18796;SDS011;9526;52.612;13.300;2023-05-10T02:20:32;12.93;;;8.07;;
18796;SDS011;9526;52.612;13.300;2023-05-10T02:22:59;10.70;;;7.78;;
18796;SDS011;9526;52.612;13.300;2023-05-10T02:25:23;14.90;;;8.73;;
18796;SDS011;9526;52.612;13.300;2023-05-10T02:27:48;12.45;;;7.38;;
18796;SDS011;9526;52.612;13.300;2023-05-10T02:30:14;11.27;;;7.55;;
18796;SDS011;9526;52.612;13.300;2023-05-10T02:32:39;11.88;;;8.10;;
18796;SDS011;9526;52.612;13.300;2023-05-10T02:35:04;10.57;;;7.80;;
18796;SDS011;9526;52.612;13.300;2023-05-10T02:37:29;10.77;;;6.82;;
18796;SDS011;9526;52.612;13.300;2023-05-10T02:39:55;12.63;;;8.02;;
18796;SDS011;9526;52.612;13.300;2023-05-10T02:42:20;15.27;;;8.43;;
18796;SDS011;9526;52.612;13.300;2023-05-10T02:44:48;11.00;;;7.38;;
18796;SDS011;9526;52.612;13.300;2023-05-10T02:47:13;11.38;;;7.05;;
18796;SDS011;9526;52.612;13.300;2023-05-10T02:49:37;14.25;;;7.72;;
18796;SDS011;9526;52.612;13.300;2023-05-10T02:52:04;13.07;;;7.65;;
18796;SDS011;9526;52.612;13.300;2023-05-10T02:54:32;12.40;;;6.97;;
18796;SDS011;9526;52.612;13.300;2023-05-10T02:57:04;12.93;;;8.77;;
18796;SDS011;9526;52.612;13.300;2023-05-10T02:59:29;13.55;;;7.03;;
18796;SDS011;9526;52.612;13.300;2023-05-10T03:01:54;11.40;;;7.72;;
18796;SDS011;9526;52.612;13.300;2023-05-10T03:04:17;9.98;;;6.97;;
18796;SDS011;9526;52.612;13.300;2023-05-10T03:06:41;12.70;;;7.05;;
18796;SDS011;9526;52.612;13.300;2023-05-10T03:09:05;11.55;;;8.00;;
18796;SDS011;9526;52.612;13.300;2023-05-10T03:11:34;16.65;;;7.53;;
18796;SDS011;9526;52.612;13.300;2023-05-10T03:14:12;12.30;;;7.40;;
18796;SDS011;9526;52.612;13.300;2023-05-10T03:16:52;14.70;;;7.40;;
18796;SDS011;9526;52.612;13.300;2023-05-10T03:19:25;13.45;;;7.13;;
18796;SDS011;9526;52.612;13.300;2023-05-10T03:21:53;14.90;;;7.07;;
18796;SDS011;9526;52.612;13.300;2023-05-10T03:24:26;11.25;;;7.40;;
18796;SDS011;9526;52.612;13.300;2023-05-10T03:26:53;14.70;;;7.15;;
18796;SDS011;9526;52.612;13.300;2023-05-10T03:29:20;13.43;;;7.00;;
18796;SDS011;9526;52.612;13.300;2023-05-10T03:31:45;13.38;;;7.57;;
18796;SDS011;9526;52.612;13.300;2023-05-10T03:34:09;10.23;;;7.20;;
18796;SDS011;9526;52.612;13.300;2023-05-10T03:36:33;10.85;;;6.65;;
18796;SDS011;9526;52.612;13.300;2023-05-10T03:38:57;11.50;;;7.00;;
18796;SDS011;9526;52.612;13.300;2023-05-10T03:41:21;11.15;;;7.38;;
18796;SDS011;9526;52.612;13.300;2023-05-10T03:43:47;10.52;;;7.07;;
18796;SDS011;9526;52.612;13.300;2023-05-10T03:46:12;13.32;;;6.72;;
18796;SDS011;9526;52.612;13.300;2023-05-10T03:48:36;13.70;;;7.40;;
18796;SDS011;9526;52.612;13.300;2023-05-10T03:50:59;9.07;;;6.72;;
18796;SDS011;9526;52.612;13.300;2023-05-10T03:53:24;13.90;;;7.18;;
18796;SDS011;9526;52.612;13.300;2023-05-10T03:55:48;13.45;;;6.72;;
18796;SDS011;9526;52.612;13.300;2023-05-10T03:58:12;10.60;;;6.28;;
18796;SDS011;9526;52.612;13.300;2023-05-10T04:00:35;15.85;;;7.03;;
18796;SDS011;9526;52.612;13.300;2023-05-10T04:03:06;11.38;;;6.78;;
18796;SDS011;9526;52.612;13.300;2023-05-10T04:05:30;10.82;;;6.60;;
18796;SDS011;9526;52.612;13.300;2023-05-10T04:07:53;10.85;;;6.70;;
18796;SDS011;9526;52.612;13.300;2023-05-10T04:10:17;10.73;;;6.40;;
18796;SDS011;9526;52.612;13.300;2023-05-10T04:12:40;9.73;;;6.32;;
18796;SDS011;9526;52.612;13.300;2023-05-10T04:15:05;12.70;;;7.57;;
18796;SDS011;9526;52.612;13.300;2023-05-10T04:17:30;10.48;;;6.50;;
18796;SDS011;9526;52.612;13.300;2023-05-10T04:19:55;10.95;;;6.72;;
18796;SDS011;9526;52.612;13.300;2023-05-10T04:22:19;11.75;;;6.65;;
18796;SDS011;9526;52.612;13.300;2023-05-10T04:24:42;10.35;;;6.70;;
18796;SDS011;9526;52.612;13.300;2023-05-10T04:27:06;8.82;;;5.97;;
18796;SDS011;9526;52.612;13.300;2023-05-10T04:29:29;9.30;;;7.00;;
18796;SDS011;9526;52.612;13.300;2023-05-10T04:31:53;7.80;;;6.13;;
18796;SDS011;9526;52.612;13.300;2023-05-10T04:34:17;9.10;;;6.45;;
18796;SDS011;9526;52.612;13.300;2023-05-10T04:36:44;10.43;;;6.93;;
18796;SDS011;9526;52.612;13.300;2023-05-10T04:39:08;11.60;;;5.82;;
18796;SDS011;9526;52.612;13.300;2023-05-10T04:41:32;10.60;;;6.00;;
18796;SDS011;9526;52.612;13.300;2023-05-10T04:43:55;10.63;;;5.30;;
18796;SDS011;9526;52.612;13.300;2023-05-10T04:46:19;11.18;;;6.45;;
18796;SDS011;9526;52.612;13.300;2023-05-10T04:48:43;8.23;;;5.75;;
18796;SDS011;9526;52.612;13.300;2023-05-10T04:51:06;9.45;;;5.68;;
18796;SDS011;9526;52.612;13.300;2023-05-10T04:53:31;9.55;;;6.22;;
18796;SDS011;9526;52.612;13.300;2023-05-10T04:55:55;10.00;;;5.60;;
18796;SDS011;9526;52.612;13.300;2023-05-10T04:58:18;12.65;;;5.95;;
18796;SDS011;9526;52.612;13.300;2023-05-10T05:00:42;11.35;;;6.35;;
18796;SDS011;9526;52.612;13.300;2023-05-10T05:03:06;9.40;;;5.57;;
18796;SDS011;9526;52.612;13.300;2023-05-10T05:05:30;10.23;;;5.70;;
18796;SDS011;9526;52.612;13.300;2023-05-10T05:07:53;8.40;;;5.80;;
18796;SDS011;9526;52.612;13.300;2023-05-10T05:10:19;7.80;;;5.70;;
18796;SDS011;9526;52.612;13.300;2023-05-10T05:12:42;7.57;;;5.60;;
18796;SDS011;9526;52.612;13.300;2023-05-10T05:15:06;9.45;;;5.35;;
18796;SDS011;9526;52.612;13.300;2023-05-10T05:17:32;7.72;;;5.40;;
18796;SDS011;9526;52.612;13.300;2023-05-10T05:19:55;11.82;;;5.72;;
18796;SDS011;9526;52.612;13.300;2023-05-10T05:22:19;11.00;;;5.57;;
18796;SDS011;9526;52.612;13.300;2023-05-10T05:24:48;9.10;;;5.18;;
18796;SDS011;9526;52.612;13.300;2023-05-10T05:27:13;11.30;;;5.63;;
18796;SDS011;9526;52.612;13.300;2023-05-10T05:29:37;7.00;;;4.95;;
18796;SDS011;9526;52.612;13.300;2023-05-10T05:32:00;10.90;;;5.88;;
18796;SDS011;9526;52.612;13.300;2023-05-10T05:34:25;9.00;;;5.40;;
18796;SDS011;9526;52.612;13.300;2023-05-10T05:36:48;9.10;;;5.57;;
18796;SDS011;9526;52.612;13.300;2023-05-10T05:39:12;10.50;;;5.80;;
18796;SDS011;9526;52.612;13.300;2023-05-10T05:41:35;10.73;;;5.38;;
18796;SDS011;9526;52.612;13.300;2023-05-10T05:44:00;8.75;;;5.05;;
18796;SDS011;9526;52.612;13.300;2023-05-10T05:46:24;7.97;;;4.97;;
18796;SDS011;9526;52.612;13.300;2023-05-10T05:48:48;8.40;;;5.07;;
18796;SDS011;9526;52.612;13.300;2023-05-10T05:51:11;8.93;;;5.30;;
18796;SDS011;9526;52.612;13.300;2023-05-10T05:53:35;10.98;;;5.07;;
18796;SDS011;9526;52.612;13.300;2023-05-10T05:55:59;9.13;;;4.78;;
18796;SDS011;9526;52.612;13.300;2023-05-10T05:58:22;6.38;;;5.15;;
18796;SDS011;9526;52.612;13.300;2023-05-10T06:00:48;6.45;;;4.57;;
18796;SDS011;9526;52.612;13.300;2023-05-10T06:03:12;7.03;;;4.43;;
18796;SDS011;9526;52.612;13.300;2023-05-10T06:05:36;8.10;;;4.93;;
18796;SDS011;9526;52.612;13.300;2023-05-10T06:07:59;5.82;;;4.40;;
18796;SDS011;9526;52.612;13.300;2023-05-10T06:10:23;14.02;;;4.63;;
18796;SDS011;9526;52.612;13.300;2023-05-10T06:12:47;6.80;;;4.65;;
18796;SDS011;9526;52.612;13.300;2023-05-10T06:15:11;7.85;;;4.53;;
18796;SDS011;9526;52.612;13.300;2023-05-10T06:17:36;6.30;;;4.45;;
18796;SDS011;9526;52.612;13.300;2023-05-10T06:20:00;7.78;;;4.15;;
18796;SDS011;9526;52.612;13.300;2023-05-10T06:22:24;4.68;;;3.83;;
18796;SDS011;9526;52.612;13.300;2023-05-10T06:24:47;6.15;;;4.22;;
18796;SDS011;9526;52.612;13.300;2023-05-10T06:27:11;6.57;;;4.00;;
18796;SDS011;9526;52.612;13.300;2023-05-10T06:29:34;5.95;;;4.00;;
18796;SDS011;9526;52.612;13.300;2023-05-10T06:31:58;6.85;;;4.07;;
18796;SDS011;9526;52.612;13.300;2023-05-10T06:34:23;5.97;;;3.60;;
18796;SDS011;9526;52.612;13.300;2023-05-10T06:36:47;6.80;;;4.13;;
18796;SDS011;9526;52.612;13.300;2023-05-10T06:39:10;5.45;;;3.80;;
18796;SDS011;9526;52.612;13.300;2023-05-10T06:41:34;4.15;;;3.60;;
18796;SDS011;9526;52.612;13.300;2023-05-10T06:43:58;7.68;;;3.63;;
18796;SDS011;9526;52.612;13.300;2023-05-10T06:46:21;6.38;;;3.90;;
18796;SDS011;9526;52.612;13.300;2023-05-10T06:48:45;4.07;;;3.40;;
18796;SDS011;9526;52.612;13.300;2023-05-10T06:51:10;5.32;;;3.47;;
18796;SDS011;9526;52.612;13.300;2023-05-10T06:53:34;7.43;;;3.95;;
18796;SDS011;9526;52.612;13.300;2023-05-10T06:55:57;6.38;;;3.58;;
18796;SDS011;9526;52.612;13.300;2023-05-10T06:58:21;6.05;;;3.63;;
18796;SDS011;9526;52.612;13.300;2023-05-10T07:00:44;5.78;;;3.50;;
18796;SDS011;9526;52.612;13.300;2023-05-10T07:03:08;9.38;;;3.70;;
18796;SDS011;9526;52.612;13.300;2023-05-10T07:05:32;8.93;;;3.50;;
18796;SDS011;9526;52.612;13.300;2023-05-10T07:07:58;6.28;;;3.63;;
18796;SDS011;9526;52.612;13.300;2023-05-10T07:10:21;11.00;;;3.60;;
18796;SDS011;9526;52.612;13.300;2023-05-10T07:12:45;5.85;;;3.45;;
18796;SDS011;9526;52.612;13.300;2023-05-10T07:15:09;5.22;;;3.55;;
18796;SDS011;9526;52.612;13.300;2023-05-10T07:17:33;4.35;;;3.38;;
18796;SDS011;9526;52.612;13.300;2023-05-10T07:19:56;5.60;;;3.17;;
18796;SDS011;9526;52.612;13.300;2023-05-10T07:22:20;6.78;;;3.30;;
18796;SDS011;9526;52.612;13.300;2023-05-10T07:24:45;8.88;;;3.75;;
18796;SDS011;9526;52.612;13.300;2023-05-10T07:27:09;6.20;;;3.60;;
18796;SDS011;9526;52.612;13.300;2023-05-10T07:29:32;7.00;;;3.53;;
18796;SDS011;9526;52.612;13.300;2023-05-10T07:31:56;10.10;;;3.72;;
18796;SDS011;9526;52.612;13.300;2023-05-10T07:34:20;6.43;;;3.45;;
18796;SDS011;9526;52.612;13.300;2023-05-10T07:36:43;10.52;;;3.60;;
18796;SDS011;9526;52.612;13.300;2023-05-10T07:39:07;4.07;;;3.00;;
18796;SDS011;9526;52.612;13.300;2023-05-10T07:41:36;3.35;;;2.95;;
18796;SDS011;9526;52.612;13.300;2023-05-10T07:44:00;8.18;;;3.38;;
18796;SDS011;9526;52.612;13.300;2023-05-10T07:46:23;4.72;;;3.65;;
18796;SDS011;9526;52.612;13.300;2023-05-10T07:48:47;5.60;;;3.60;;
18796;SDS011;9526;52.612;13.300;2023-05-10T07:51:11;4.18;;;3.33;;
18796;SDS011;9526;52.612;13.300;2023-05-10T07:53:35;6.97;;;3.10;;
18796;SDS011;9526;52.612;13.300;2023-05-10T07:55:58;5.65;;;3.50;;
18796;SDS011;9526;52.612;13.300;2023-05-10T07:58:23;6.85;;;3.30;;
18796;SDS011;9526;52.612;13.300;2023-05-10T08:00:47;7.35;;;3.35;;
18796;SDS011;9526;52.612;13.300;2023-05-10T08:03:11;4.22;;;3.63;;
18796;SDS011;9526;52.612;13.300;2023-05-10T08:05:35;5.63;;;3.58;;
18796;SDS011;9526;52.612;13.300;2023-05-10T08:07:58;6.55;;;3.65;;
18796;SDS011;9526;52.612;13.300;2023-05-10T08:10:22;6.85;;;3.67;;
18796;SDS011;9526;52.612;13.300;2023-05-10T08:12:46;3.83;;;3.10;;
18796;SDS011;9526;52.612;13.300;2023-05-10T08:15:11;4.32;;;3.63;;
18796;SDS011;9526;52.612;13.300;2023-05-10T08:17:35;3.53;;;3.10;;
18796;SDS011;9526;52.612;13.300;2023-05-10T08:19:59;7.35;;;3.50;;
18796;SDS011;9526;52.612;13.300;2023-05-10T08:22:23;7.82;;;3.20;;
18796;SDS011;9526;52.612;13.300;2023-05-10T08:24:46;4.18;;;3.20;;
18796;SDS011;9526;52.612;13.300;2023-05-10T08:27:10;7.90;;;3.40;;
18796;SDS011;9526;52.612;13.300;2023-05-10T08:29:34;6.95;;;3.22;;
18796;SDS011;9526;52.612;13.300;2023-05-10T08:32:11;6.75;;;3.20;;
18796;SDS011;9526;52.612;13.300;2023-05-10T08:34:35;6.88;;;3.53;;
18796;SDS011;9526;52.612;13.300;2023-05-10T08:36:58;5.85;;;3.45;;
18796;SDS011;9526;52.612;13.300;2023-05-10T08:39:22;6.95;;;3.17;;
18796;SDS011;9526;52.612;13.300;2023-05-10T08:41:51;4.93;;;3.40;;
18796;SDS011;9526;52.612;13.300;2023-05-10T08:44:16;9.48;;;3.67;;
18796;SDS011;9526;52.612;13.300;2023-05-10T08:46:40;10.68;;;3.53;;
18796;SDS011;9526;52.612;13.300;2023-05-10T08:49:09;9.15;;;3.70;;
18796;SDS011;9526;52.612;13.300;2023-05-10T08:51:36;5.57;;;3.40;;
18796;SDS011;9526;52.612;13.300;2023-05-10T08:54:04;7.10;;;3.03;;
18796;SDS011;9526;52.612;13.300;2023-05-10T08:56:28;3.63;;;3.17;;
18796;SDS011;9526;52.612;13.300;2023-05-10T08:58:52;3.95;;;3.55;;
18796;SDS011;9526;52.612;13.300;2023-05-10T09:01:16;5.55;;;3.47;;
18796;SDS011;9526;52.612;13.300;2023-05-10T09:03:42;4.95;;;3.22;;
18796;SDS011;9526;52.612;13.300;2023-05-10T09:06:07;4.88;;;3.35;;
18796;SDS011;9526;52.612;13.300;2023-05-10T09:08:31;5.10;;;3.05;;
18796;SDS011;9526;52.612;13.300;2023-05-10T09:10:55;5.68;;;3.35;;
18796;SDS011;9526;52.612;13.300;2023-05-10T09:13:19;4.13;;;3.17;;
18796;SDS011;9526;52.612;13.300;2023-05-10T09:15:46;6.78;;;3.17;;
18796;SDS011;9526;52.612;13.300;2023-05-10T09:18:11;3.58;;;2.90;;
18796;SDS011;9526;52.612;13.300;2023-05-10T09:20:35;4.70;;;3.30;;
18796;SDS011;9526;52.612;13.300;2023-05-10T09:22:59;5.13;;;3.20;;
18796;SDS011;9526;52.612;13.300;2023-05-10T09:25:23;4.30;;;2.83;;
18796;SDS011;9526;52.612;13.300;2023-05-10T09:27:47;7.32;;;3.28;;
18796;SDS011;9526;52.612;13.300;2023-05-10T09:30:14;8.98;;;2.92;;
18796;SDS011;9526;52.612;13.300;2023-05-10T09:32:40;4.28;;;3.10;;
18796;SDS011;9526;52.612;13.300;2023-05-10T09:35:06;10.73;;;3.45;;
18796;SDS011;9526;52.612;13.300;2023-05-10T09:37:31;5.40;;;3.38;;
18796;SDS011;9526;52.612;13.300;2023-05-10T09:39:56;6.72;;;3.05;;
18796;SDS011;9526;52.612;13.300;2023-05-10T09:42:20;4.93;;;3.28;;
18796;SDS011;9526;52.612;13.300;2023-05-10T09:44:43;5.15;;;3.30;;
18796;SDS011;9526;52.612;13.300;2023-05-10T09:47:09;8.38;;;3.83;;
18796;SDS011;9526;52.612;13.300;2023-05-10T09:49:33;4.88;;;3.25;;
18796;SDS011;9526;52.612;13.300;2023-05-10T09:52:00;5.60;;;3.40;;
18796;SDS011;9526;52.612;13.300;2023-05-10T09:54:25;4.90;;;2.97;;
18796;SDS011;9526;52.612;13.300;2023-05-10T09:56:50;9.05;;;3.72;;
18796;SDS011;9526;52.612;13.300;2023-05-10T09:59:14;4.28;;;2.80;;
18796;SDS011;9526;52.612;13.300;2023-05-10T10:01:38;4.10;;;3.00;;
18796;SDS011;9526;52.612;13.300;2023-05-10T10:04:03;3.72;;;2.83;;
18796;SDS011;9526;52.612;13.300;2023-05-10T10:06:29;4.22;;;3.03;;
18796;SDS011;9526;52.612;13.300;2023-05-10T10:08:59;6.70;;;3.05;;
18796;SDS011;9526;52.612;13.300;2023-05-10T10:11:23;4.15;;;3.20;;
18796;SDS011;9526;52.612;13.300;2023-05-10T10:13:48;5.00;;;2.65;;
18796;SDS011;9526;52.612;13.300;2023-05-10T10:16:13;3.53;;;2.63;;
18796;SDS011;9526;52.612;13.300;2023-05-10T10:18:37;7.47;;;3.35;;
18796;SDS011;9526;52.612;13.300;2023-05-10T10:21:01;7.32;;;2.97;;
18796;SDS011;9526;52.612;13.300;2023-05-10T10:23:25;3.70;;;3.08;;
18796;SDS011;9526;52.612;13.300;2023-05-10T10:25:50;4.93;;;3.35;;
18796;SDS011;9526;52.612;13.300;2023-05-10T10:28:18;5.85;;;2.95;;
18796;SDS011;9526;52.612;13.300;2023-05-10T10:30:51;5.07;;;3.30;;
18796;SDS011;9526;52.612;13.300;2023-05-10T10:36:22;5.72;;;2.88;;
18796;SDS011;9526;52.612;13.300;2023-05-10T10:38:54;5.75;;;3.30;;
18796;SDS011;9526;52.612;13.300;2023-05-10T10:41:27;4.25;;;2.95;;
18796;SDS011;9526;52.612;13.300;2023-05-10T10:46:59;3.25;;;2.67;;
18796;SDS011;9526;52.612;13.300;2023-05-10T10:49:27;3.45;;;2.80;;
18796;SDS011;9526;52.612;13.300;2023-05-10T10:54:50;8.25;;;2.92;;
18796;SDS011;9526;52.612;13.300;2023-05-10T10:57:14;5.75;;;2.60;;
18796;SDS011;9526;52.612;13.300;2023-05-10T10:59:41;3.88;;;2.90;;
18796;SDS011;9526;52.612;13.300;2023-05-10T11:02:07;3.80;;;2.60;;
18796;SDS011;9526;52.612;13.300;2023-05-10T11:04:34;3.33;;;2.70;;
18796;SDS011;9526;52.612;13.300;2023-05-10T11:07:17;8.80;;;3.03;;
18796;SDS011;9526;52.612;13.300;2023-05-10T11:09:41;5.13;;;2.90;;
18796;SDS011;9526;52.612;13.300;2023-05-10T11:12:07;4.82;;;2.90;;
18796;SDS011;9526;52.612;13.300;2023-05-10T11:14:31;7.13;;;3.22;;
18796;SDS011;9526;52.612;13.300;2023-05-10T11:16:55;5.68;;;2.60;;
18796;SDS011;9526;52.612;13.300;2023-05-10T11:19:20;2.75;;;2.30;;
18796;SDS011;9526;52.612;13.300;2023-05-10T11:21:45;4.03;;;3.00;;
18796;SDS011;9526;52.612;13.300;2023-05-10T11:24:12;4.38;;;2.70;;
18796;SDS011;9526;52.612;13.300;2023-05-10T11:26:37;3.58;;;2.80;;
18796;SDS011;9526;52.612;13.300;2023-05-10T11:29:00;5.05;;;3.05;;
18796;SDS011;9526;52.612;13.300;2023-05-10T11:31:26;5.85;;;2.80;;
18796;SDS011;9526;52.612;13.300;2023-05-10T11:33:51;4.43;;;3.08;;
18796;SDS011;9526;52.612;13.300;2023-05-10T11:36:18;4.28;;;3.10;;
18796;SDS011;9526;52.612;13.300;2023-05-10T11:38:43;4.47;;;2.70;;
18796;SDS011;9526;52.612;13.300;2023-05-10T11:41:08;5.10;;;3.00;;
18796;SDS011;9526;52.612;13.300;2023-05-10T11:43:33;5.88;;;2.72;;
18796;SDS011;9526;52.612;13.300;2023-05-10T11:45:58;3.75;;;2.97;;
18796;SDS011;9526;52.612;13.300;2023-05-10T11:48:21;5.63;;;2.70;;
18796;SDS011;9526;52.612;13.300;2023-05-10T11:50:45;7.20;;;2.70;;
18796;SDS011;9526;52.612;13.300;2023-05-10T11:53:10;4.07;;;2.45;;
18796;SDS011;9526;52.612;13.300;2023-05-10T11:55:36;4.15;;;2.42;;
18796;SDS011;9526;52.612;13.300;2023-05-10T11:58:00;3.97;;;2.60;;
18796;SDS011;9526;52.612;13.300;2023-05-10T12:00:25;10.60;;;2.50;;
18796;SDS011;9526;52.612;13.300;2023-05-10T12:02:48;4.00;;;2.70;;
18796;SDS011;9526;52.612;13.300;2023-05-10T12:05:12;6.25;;;2.85;;
18796;SDS011;9526;52.612;13.300;2023-05-10T12:07:36;6.05;;;2.40;;
18796;SDS011;9526;52.612;13.300;2023-05-10T12:10:05;6.97;;;2.67;;
18796;SDS011;9526;52.612;13.300;2023-05-10T12:12:35;3.67;;;3.05;;
18796;SDS011;9526;52.612;13.300;2023-05-10T12:15:03;2.55;;;2.30;;
18796;SDS011;9526;52.612;13.300;2023-05-10T12:17:28;10.55;;;3.00;;
18796;SDS011;9526;52.612;13.300;2023-05-10T12:19:52;7.82;;;2.80;;
18796;SDS011;9526;52.612;13.300;2023-05-10T12:22:20;7.00;;;2.80;;
18796;SDS011;9526;52.612;13.300;2023-05-10T12:24:44;3.78;;;2.63;;
18796;SDS011;9526;52.612;13.300;2023-05-10T12:27:10;5.68;;;2.75;;
18796;SDS011;9526;52.612;13.300;2023-05-10T12:29:34;6.20;;;2.33;;
18796;SDS011;9526;52.612;13.300;2023-05-10T12:32:03;4.90;;;2.72;;
18796;SDS011;9526;52.612;13.300;2023-05-10T12:34:30;6.72;;;2.78;;
18796;SDS011;9526;52.612;13.300;2023-05-10T12:36:55;3.40;;;2.47;;
18796;SDS011;9526;52.612;13.300;2023-05-10T12:39:18;3.65;;;2.55;;
18796;SDS011;9526;52.612;13.300;2023-05-10T12:41:42;3.17;;;2.80;;
18796;SDS011;9526;52.612;13.300;2023-05-10T12:44:08;9.15;;;2.67;;
18796;SDS011;9526;52.612;13.300;2023-05-10T12:46:31;6.13;;;2.70;;
18796;SDS011;9526;52.612;13.300;2023-05-10T12:48:55;4.53;;;2.40;;
18796;SDS011;9526;52.612;13.300;2023-05-10T12:51:30;4.65;;;2.53;;
18796;SDS011;9526;52.612;13.300;2023-05-10T12:53:53;5.53;;;2.60;;
18796;SDS011;9526;52.612;13.300;2023-05-10T12:56:17;4.72;;;2.50;;
18796;SDS011;9526;52.612;13.300;2023-05-10T12:58:42;3.22;;;2.60;;
18796;SDS011;9526;52.612;13.300;2023-05-10T13:01:11;6.78;;;2.75;;
18796;SDS011;9526;52.612;13.300;2023-05-10T13:03:34;3.53;;;2.65;;
18796;SDS011;9526;52.612;13.300;2023-05-10T13:05:58;4.07;;;2.78;;
18796;SDS011;9526;52.612;13.300;2023-05-10T13:08:22;6.60;;;2.58;;
18796;SDS011;9526;52.612;13.300;2023-05-10T13:10:46;6.55;;;2.70;;
18796;SDS011;9526;52.612;13.300;2023-05-10T13:13:10;5.10;;;2.85;;
18796;SDS011;9526;52.612;13.300;2023-05-10T13:15:34;6.68;;;2.50;;
18796;SDS011;9526;52.612;13.300;2023-05-10T13:17:59;6.47;;;2.63;;
18796;SDS011;9526;52.612;13.300;2023-05-10T13:20:23;6.47;;;2.53;;
18796;SDS011;9526;52.612;13.300;2023-05-10T13:22:47;5.25;;;2.80;;
18796;SDS011;9526;52.612;13.300;2023-05-10T13:25:12;7.22;;;2.80;;
18796;SDS011;9526;52.612;13.300;2023-05-10T13:27:36;6.05;;;2.70;;
18796;SDS011;9526;52.612;13.300;2023-05-10T13:30:00;4.10;;;2.63;;
18796;SDS011;9526;52.612;13.300;2023-05-10T13:32:24;4.22;;;2.50;;
18796;SDS011;9526;52.612;13.300;2023-05-10T13:34:49;2.75;;;2.55;;
18796;SDS011;9526;52.612;13.300;2023-05-10T13:37:13;3.92;;;2.65;;
18796;SDS011;9526;52.612;13.300;2023-05-10T13:39:36;4.35;;;2.70;;
18796;SDS011;9526;52.612;13.300;2023-05-10T13:42:00;4.22;;;2.55;;
18796;SDS011;9526;52.612;13.300;2023-05-10T13:44:24;3.78;;;2.60;;
18796;SDS011;9526;52.612;13.300;2023-05-10T13:46:48;6.22;;;2.40;;
18796;SDS011;9526;52.612;13.300;2023-05-10T13:49:11;4.20;;;2.95;;
18796;SDS011;9526;52.612;13.300;2023-05-10T13:51:37;4.85;;;2.70;;
18796;SDS011;9526;52.612;13.300;2023-05-10T13:54:01;6.78;;;2.67;;
18796;SDS011;9526;52.612;13.300;2023-05-10T13:56:25;4.38;;;2.70;;
18796;SDS011;9526;52.612;13.300;2023-05-10T13:58:48;4.82;;;2.63;;
18796;SDS011;9526;52.612;13.300;2023-05-10T14:01:12;6.00;;;2.53;;
18796;SDS011;9526;52.612;13.300;2023-05-10T14:03:36;5.70;;;2.38;;
18796;SDS011;9526;52.612;13.300;2023-05-10T14:06:00;5.65;;;2.38;;
18796;SDS011;9526;52.612;13.300;2023-05-10T14:08:25;7.05;;;2.60;;
18796;SDS011;9526;52.612;13.300;2023-05-10T14:10:49;4.70;;;2.65;;
18796;SDS011;9526;52.612;13.300;2023-05-10T14:13:14;5.97;;;2.58;;
18796;SDS011;9526;52.612;13.300;2023-05-10T14:15:37;6.45;;;2.33;;
18796;SDS011;9526;52.612;13.300;2023-05-10T14:18:01;3.80;;;2.40;;
18796;SDS011;9526;52.612;13.300;2023-05-10T14:20:25;3.45;;;2.63;;
18796;SDS011;9526;52.612;13.300;2023-05-10T14:22:48;4.22;;;2.40;;
18796;SDS011;9526;52.612;13.300;2023-05-10T14:25:13;4.00;;;2.47;;
18796;SDS011;9526;52.612;13.300;2023-05-10T14:27:38;4.60;;;2.45;;
18796;SDS011;9526;52.612;13.300;2023-05-10T14:30:02;5.13;;;2.55;;
18796;SDS011;9526;52.612;13.300;2023-05-10T14:32:29;6.40;;;2.50;;
18796;SDS011;9526;52.612;13.300;2023-05-10T14:34:53;5.68;;;2.20;;
18796;SDS011;9526;52.612;13.300;2023-05-10T14:37:17;3.05;;;2.42;;
18796;SDS011;9526;52.612;13.300;2023-05-10T14:39:40;3.47;;;2.10;;
18796;SDS011;9526;52.612;13.300;2023-05-10T14:42:06;6.75;;;2.30;;
18796;SDS011;9526;52.612;13.300;2023-05-10T14:44:30;5.95;;;2.50;;